createdAt,value
2023-04-10T00:01:19.292Z,2.60
2023-04-10T00:03:47.582Z,2.50
2023-04-10T00:06:15.733Z,2.50
2023-04-10T00:08:43.770Z,2.70
2023-04-10T00:11:13.246Z,2.90
2023-04-10T00:13:41.309Z,2.90
2023-04-10T00:16:09.721Z,2.90
2023-04-10T00:18:37.905Z,3.10
2023-04-10T00:21:07.141Z,3.00
2023-04-10T00:23:35.923Z,3.10
2023-04-10T00:26:04.460Z,3.40
2023-04-10T00:28:33.984Z,3.30
2023-04-10T00:31:02.041Z,3.10
2023-04-10T00:33:30.127Z,3.00
2023-04-10T00:35:58.313Z,2.90
2023-04-10T00:38:26.771Z,2.90
2023-04-10T00:40:54.885Z,3.00
2023-04-10T00:43:24.357Z,3.10
2023-04-10T00:45:53.924Z,3.10
2023-04-10T00:48:22.161Z,3.00
2023-04-10T00:50:50.582Z,3.10
2023-04-10T00:53:18.852Z,3.00
2023-04-10T00:55:49.205Z,2.90
2023-04-10T00:58:17.640Z,3.00
2023-04-10T01:00:45.778Z,3.20
2023-04-10T01:03:20.057Z,3.20
2023-04-10T01:06:04.144Z,3.10
2023-04-10T01:08:45.987Z,3.20
2023-04-10T01:11:28.811Z,3.30
2023-04-10T01:14:08.327Z,3.40
2023-04-10T01:16:49.614Z,3.40
2023-04-10T01:19:44.122Z,3.50
2023-04-10T01:22:15.405Z,3.30
2023-04-10T01:25:02.930Z,3.20
2023-04-10T01:27:48.130Z,3.20
2023-04-10T01:30:24.174Z,3.20
2023-04-10T01:32:56.986Z,3.20
2023-04-10T01:35:29.150Z,3.10
2023-04-10T01:37:58.555Z,3.00
2023-04-10T01:40:30.433Z,3.00
2023-04-10T01:43:01.513Z,3.30
2023-04-10T01:45:31.643Z,3.50
2023-04-10T01:48:00.785Z,3.60
2023-04-10T01:50:32.847Z,3.50
2023-04-10T01:53:02.230Z,3.40
2023-04-10T01:55:32.159Z,3.30
2023-04-10T01:58:02.395Z,3.20
2023-04-10T02:00:38.298Z,3.20
2023-04-10T02:03:06.691Z,3.20
2023-04-10T02:05:49.942Z,3.30
2023-04-10T02:08:27.330Z,3.20
2023-04-10T02:11:03.912Z,3.20
2023-04-10T02:13:35.655Z,3.20
2023-04-10T02:16:09.348Z,3.30
2023-04-10T02:18:41.054Z,3.20
2023-04-10T02:21:10.289Z,3.20
2023-04-10T02:23:38.820Z,3.10
2023-04-10T02:26:10.947Z,3.20
2023-04-10T02:28:40.399Z,3.30
2023-04-10T02:31:10.025Z,3.30
2023-04-10T02:33:38.108Z,3.20
2023-04-10T02:36:07.310Z,3.00
2023-04-10T02:38:35.392Z,2.80
2023-04-10T02:41:03.468Z,2.60
2023-04-10T02:43:31.534Z,2.70
2023-04-10T02:46:00.002Z,2.60
2023-04-10T02:48:29.535Z,2.60
2023-04-10T02:50:58.801Z,2.50
2023-04-10T02:53:27.223Z,2.50
2023-04-10T02:55:55.675Z,2.50
2023-04-10T02:58:23.713Z,2.60
2023-04-10T03:00:52.953Z,2.70
2023-04-10T03:03:21.709Z,2.50
2023-04-10T03:05:51.171Z,2.50
2023-04-10T03:08:19.620Z,2.40
2023-04-10T03:10:49.399Z,2.60
2023-04-10T03:13:17.904Z,2.80
2023-04-10T03:15:46.023Z,2.90
2023-04-10T03:18:14.466Z,2.90
2023-04-10T03:20:44.923Z,2.90
2023-04-10T03:23:14.594Z,2.90
2023-04-10T03:25:43.391Z,2.80
2023-04-10T03:28:11.552Z,2.80
2023-04-10T03:30:39.790Z,2.80
2023-04-10T03:33:07.795Z,2.70
2023-04-10T03:35:35.946Z,2.70
2023-04-10T03:38:04.013Z,2.60
2023-04-10T03:40:34.301Z,2.40
2023-04-10T03:43:02.517Z,2.30
2023-04-10T03:45:30.591Z,2.20
2023-04-10T03:47:59.782Z,2.00
2023-04-10T03:50:27.875Z,2.00
2023-04-10T03:52:56.529Z,2.10
2023-04-10T03:55:24.673Z,1.90
2023-04-10T03:57:54.195Z,1.90
2023-04-10T04:00:22.541Z,1.90
2023-04-10T04:02:51.971Z,2.00
2023-04-10T04:05:20.787Z,2.10
2023-04-10T04:07:48.855Z,2.20
2023-04-10T04:10:17.026Z,2.10
2023-04-10T04:12:46.187Z,2.20
2023-04-10T04:15:15.733Z,2.30
2023-04-10T04:17:46.237Z,2.40
2023-04-10T04:20:14.499Z,2.40
2023-04-10T04:22:42.636Z,2.30
2023-04-10T04:25:12.022Z,2.20
2023-04-10T04:27:40.529Z,2.10
2023-04-10T04:30:10.674Z,2.10
2023-04-10T04:32:40.172Z,2.10
2023-04-10T04:35:09.784Z,2.00
2023-04-10T04:37:37.835Z,2.00
2023-04-10T04:40:07.364Z,2.00
2023-04-10T04:42:35.840Z,2.00
2023-04-10T04:45:04.085Z,2.00
2023-04-10T04:47:32.186Z,2.00
2023-04-10T04:50:02.159Z,1.80
2023-04-10T04:52:30.322Z,1.80
2023-04-10T04:54:58.584Z,1.80
2023-04-10T04:57:26.714Z,1.90
2023-04-10T04:59:54.936Z,1.90
2023-04-10T05:02:23.558Z,1.90
2023-04-10T05:04:51.662Z,1.80
2023-04-10T05:07:21.188Z,1.80
2023-04-10T05:09:49.287Z,1.70
2023-04-10T05:12:17.428Z,1.70
2023-04-10T05:14:47.541Z,1.80
2023-04-10T05:17:16.919Z,1.90
2023-04-10T05:19:45.004Z,2.20
2023-04-10T05:22:13.066Z,2.20
2023-04-10T05:24:42.442Z,2.30
2023-04-10T05:27:10.669Z,2.40
2023-04-10T05:29:38.696Z,2.40
2023-04-10T05:32:07.086Z,2.50
2023-04-10T05:34:35.139Z,2.70
2023-04-10T05:37:03.236Z,2.80
2023-04-10T05:39:31.324Z,2.90
2023-04-10T05:42:00.898Z,3.10
2023-04-10T05:44:28.997Z,3.20
2023-04-10T05:46:57.056Z,3.50
2023-04-10T05:49:25.169Z,4.00
2023-04-10T05:51:53.569Z,4.60
2023-04-10T05:54:21.610Z,5.20
2023-04-10T05:56:49.772Z,5.60
2023-04-10T05:59:19.303Z,6.10
2023-04-10T06:01:48.095Z,6.50
2023-04-10T06:04:16.256Z,6.80
2023-04-10T06:06:44.438Z,7.30
2023-04-10T06:09:12.452Z,7.70
2023-04-10T06:11:40.510Z,7.80
2023-04-10T06:14:08.520Z,7.80
2023-04-10T06:16:38.057Z,7.90
2023-04-10T06:19:06.540Z,7.80
2023-04-10T06:21:34.628Z,7.70
2023-04-10T06:24:02.645Z,7.50
2023-04-10T06:26:30.933Z,7.60
2023-04-10T06:28:59.000Z,7.80
2023-04-10T06:31:27.317Z,8.70
2023-04-10T06:33:56.778Z,9.30
2023-04-10T06:36:24.826Z,9.90
2023-04-10T06:38:53.019Z,10.80
2023-04-10T06:41:21.151Z,11.50
2023-04-10T06:43:49.273Z,12.10
2023-04-10T06:46:17.834Z,12.20
2023-04-10T06:48:45.922Z,11.70
2023-04-10T06:51:15.552Z,11.70
2023-04-10T06:53:43.562Z,12.00
2023-04-10T06:56:11.999Z,12.40
2023-04-10T06:58:41.212Z,12.70
2023-04-10T07:01:09.346Z,13.20
2023-04-10T07:03:38.290Z,13.50
2023-04-10T07:06:07.993Z,13.90
2023-04-10T07:08:37.358Z,13.60
2023-04-10T07:11:05.984Z,14.00
2023-04-10T07:13:35.580Z,14.80
2023-04-10T07:16:03.787Z,15.40
2023-04-10T07:18:31.882Z,15.60
2023-04-10T07:20:59.927Z,15.50
2023-04-10T07:23:27.963Z,15.80
2023-04-10T07:25:58.251Z,15.60
2023-04-10T07:28:26.264Z,15.60
2023-04-10T07:30:54.290Z,16.70
2023-04-10T07:33:22.379Z,17.00
2023-04-10T07:35:50.565Z,17.00
2023-04-10T07:38:19.335Z,17.30
2023-04-10T07:40:47.737Z,17.20
2023-04-10T07:43:17.064Z,17.20
2023-04-10T07:45:45.128Z,17.30
2023-04-10T07:48:13.238Z,18.00
2023-04-10T07:50:41.298Z,19.00
2023-04-10T07:53:09.520Z,20.40
2023-04-10T07:55:40.997Z,21.30
2023-04-10T07:58:09.058Z,22.40
2023-04-10T08:00:38.727Z,23.30
2023-04-10T08:03:07.496Z,24.10
2023-04-10T08:05:36.349Z,24.40
2023-04-10T08:08:04.354Z,25.50
2023-04-10T08:10:32.408Z,25.90
2023-04-10T08:13:00.390Z,25.90
2023-04-10T08:15:28.635Z,25.70
2023-04-10T08:17:58.061Z,25.30
2023-04-10T08:20:26.044Z,24.70
2023-04-10T08:22:56.258Z,24.10
2023-04-10T08:25:27.118Z,24.30
2023-04-10T08:27:55.200Z,24.00
2023-04-10T08:30:23.226Z,23.90
2023-04-10T08:32:51.293Z,23.60
2023-04-10T08:35:21.041Z,22.30
2023-04-10T08:37:53.628Z,20.70
2023-04-10T08:40:25.598Z,20.10
2023-04-10T08:42:53.674Z,20.10
2023-04-10T08:45:21.816Z,20.50
2023-04-10T08:47:53.514Z,21.00
2023-04-10T08:50:22.972Z,20.70
2023-04-10T08:52:56.123Z,21.00
2023-04-10T08:55:25.356Z,20.80
2023-04-10T08:58:00.369Z,20.40
2023-04-10T09:00:31.556Z,20.40
2023-04-10T09:03:00.189Z,20.40
2023-04-10T09:05:31.340Z,19.80
2023-04-10T09:07:59.317Z,19.70
2023-04-10T09:10:27.511Z,19.60
2023-04-10T09:12:55.730Z,19.40
2023-04-10T09:15:23.935Z,19.00
2023-04-10T09:18:00.682Z,19.20
2023-04-10T09:20:33.340Z,19.00
2023-04-10T09:23:02.397Z,19.50
2023-04-10T09:25:34.131Z,20.30
2023-04-10T09:28:04.134Z,20.60
2023-04-10T09:30:38.029Z,20.40
2023-04-10T09:33:24.043Z,20.60
2023-04-10T09:35:53.466Z,20.80
2023-04-10T09:38:22.968Z,21.40
2023-04-10T09:40:53.782Z,22.00
2023-04-10T09:43:25.375Z,20.60
2023-04-10T09:45:56.365Z,19.80
2023-04-10T09:48:26.699Z,19.80
2023-04-10T09:50:56.858Z,19.60
2023-04-10T09:53:24.874Z,19.10
2023-04-10T09:55:52.913Z,18.70
2023-04-10T09:58:21.154Z,18.40
2023-04-10T10:00:50.632Z,18.40
2023-04-10T10:03:21.557Z,18.70
2023-04-10T10:05:52.840Z,18.80
2023-04-10T10:08:23.828Z,19.00
2023-04-10T10:10:55.657Z,19.20
2023-04-10T10:13:29.987Z,19.30
2023-04-10T10:16:09.355Z,19.20
2023-04-10T10:18:46.792Z,19.10
2023-04-10T10:21:15.954Z,19.30
2023-04-10T10:23:46.764Z,19.40
2023-04-10T10:26:16.257Z,19.90
2023-04-10T10:28:47.583Z,20.20
2023-04-10T10:31:18.271Z,20.60
2023-04-10T10:33:47.008Z,21.30
2023-04-10T10:36:18.441Z,21.30
2023-04-10T10:39:01.362Z,21.30
2023-04-10T10:41:41.158Z,22.00
2023-04-10T10:44:17.139Z,21.80
2023-04-10T10:46:52.189Z,20.90
2023-04-10T10:49:20.420Z,20.50
2023-04-10T10:51:51.343Z,20.60
2023-04-10T10:54:35.432Z,20.90
2023-04-10T10:57:06.484Z,21.40
2023-04-10T10:59:56.928Z,21.70
2023-04-10T11:02:26.710Z,22.00
2023-04-10T11:04:54.906Z,22.50
2023-04-10T11:07:23.037Z,22.20
2023-04-10T11:09:54.557Z,22.20
2023-04-10T11:12:25.432Z,21.60
2023-04-10T11:15:02.441Z,21.10
2023-04-10T11:17:51.285Z,21.50
2023-04-10T11:20:21.808Z,21.50
2023-04-10T11:23:13.616Z,21.60
2023-04-10T11:25:52.175Z,22.00
2023-04-10T11:28:37.066Z,21.90
2023-04-10T11:31:21.774Z,22.20
2023-04-10T11:33:53.587Z,21.80
2023-04-10T11:36:21.944Z,21.30
2023-04-10T11:38:57.134Z,21.40
2023-04-10T11:41:31.914Z,21.30
2023-04-10T11:44:00.488Z,21.40
2023-04-10T11:46:28.887Z,21.50
2023-04-10T11:48:59.253Z,21.50
2023-04-10T11:51:28.336Z,21.40
2023-04-10T11:54:08.443Z,21.50
2023-04-10T11:56:39.916Z,21.30
2023-04-10T11:59:10.984Z,21.50
2023-04-10T12:01:42.767Z,21.80
2023-04-10T12:04:17.245Z,22.30
2023-04-10T12:06:46.964Z,21.70
2023-04-10T12:09:17.424Z,21.20
2023-04-10T12:11:53.038Z,20.80
2023-04-10T12:14:22.658Z,20.60
2023-04-10T12:16:52.598Z,20.20
2023-04-10T12:19:21.675Z,20.60
2023-04-10T12:21:50.386Z,20.20
2023-04-10T12:24:43.480Z,20.10
2023-04-10T12:27:18.711Z,19.80
2023-04-10T12:29:47.943Z,19.40
2023-04-10T12:32:16.745Z,19.20
2023-04-10T12:34:52.635Z,18.90
2023-04-10T12:37:21.107Z,18.50
2023-04-10T12:39:49.852Z,18.60
2023-04-10T12:42:22.957Z,18.60
2023-04-10T12:44:56.580Z,18.50
2023-04-10T12:47:26.150Z,18.50
2023-04-10T12:50:08.526Z,18.50
2023-04-10T12:52:38.349Z,18.70
2023-04-10T12:55:15.631Z,18.80
2023-04-10T12:57:47.957Z,18.90
2023-04-10T13:00:19.231Z,19.00
2023-04-10T13:02:49.258Z,19.10
2023-04-10T13:05:17.707Z,19.30
2023-04-10T13:07:45.925Z,19.60
2023-04-10T13:10:13.945Z,19.60
2023-04-10T13:12:43.611Z,19.70
2023-04-10T13:15:13.983Z,19.70
2023-04-10T13:17:42.092Z,19.70
2023-04-10T13:20:13.423Z,20.00
2023-04-10T13:22:41.482Z,20.00
2023-04-10T13:25:10.571Z,19.90
2023-04-10T13:27:38.677Z,20.00
2023-04-10T13:30:08.772Z,20.10
2023-04-10T13:32:38.252Z,20.40
2023-04-10T13:35:08.206Z,20.40
2023-04-10T13:37:37.743Z,20.10
2023-04-10T13:40:07.020Z,19.70
2023-04-10T13:42:37.184Z,19.40
2023-04-10T13:45:08.301Z,19.30
2023-04-10T13:47:37.727Z,19.10
2023-04-10T13:50:06.848Z,18.90
2023-04-10T13:52:34.987Z,18.70
2023-04-10T13:55:02.985Z,18.70
2023-04-10T13:57:31.098Z,18.90
2023-04-10T13:59:59.106Z,18.80
2023-04-10T14:02:27.219Z,18.80
2023-04-10T14:04:56.697Z,18.90
2023-04-10T14:07:24.726Z,18.90
2023-04-10T14:09:52.853Z,18.80
2023-04-10T14:12:23.074Z,18.90
2023-04-10T14:14:51.416Z,19.20
2023-04-10T14:17:19.432Z,19.00
2023-04-10T14:19:48.860Z,19.00
2023-04-10T14:22:18.269Z,18.90
2023-04-10T14:24:46.712Z,18.70
2023-04-10T14:27:15.007Z,18.60
2023-04-10T14:29:53.975Z,18.50
2023-04-10T14:32:23.010Z,18.50
2023-04-10T14:34:51.151Z,18.50
2023-04-10T14:37:20.560Z,18.30
2023-04-10T14:39:48.578Z,18.10
2023-04-10T14:42:16.596Z,18.00
2023-04-10T14:44:44.875Z,17.80
2023-04-10T14:47:13.688Z,17.60
2023-04-10T14:49:42.551Z,17.70
2023-04-10T14:52:10.576Z,17.60
2023-04-10T14:54:41.474Z,17.80
2023-04-10T14:57:09.733Z,18.00
2023-04-10T14:59:37.762Z,18.20
2023-04-10T15:02:05.775Z,18.40
2023-04-10T15:04:34.158Z,18.50
2023-04-10T15:07:02.381Z,18.50
2023-04-10T15:09:31.621Z,18.30
2023-04-10T15:12:01.795Z,18.20
2023-04-10T15:14:29.934Z,18.10
2023-04-10T15:16:59.534Z,18.10
2023-04-10T15:19:27.792Z,18.00
2023-04-10T15:21:56.107Z,17.90
2023-04-10T15:24:24.193Z,17.80
2023-04-10T15:26:53.423Z,17.60
2023-04-10T15:29:22.913Z,17.60
2023-04-10T15:31:52.145Z,17.50
2023-04-10T15:34:20.220Z,17.40
2023-04-10T15:36:48.300Z,17.30
2023-04-10T15:39:16.405Z,17.20
2023-04-10T15:41:44.457Z,17.20
2023-04-10T15:44:12.483Z,17.10
2023-04-10T15:46:41.948Z,17.00
2023-04-10T15:49:10.292Z,17.00
2023-04-10T15:51:38.303Z,17.00
2023-04-10T15:54:06.519Z,16.90
2023-04-10T15:56:34.629Z,16.90
2023-04-10T15:59:02.683Z,16.90
2023-04-10T16:01:30.928Z,16.90
2023-04-10T16:04:00.548Z,16.90
2023-04-10T16:06:29.094Z,17.00
2023-04-10T16:08:57.173Z,17.00
2023-04-10T16:11:25.541Z,17.00
2023-04-10T16:13:53.681Z,16.90
2023-04-10T16:16:21.899Z,17.00
2023-04-10T16:18:49.965Z,17.10
2023-04-10T16:21:21.233Z,17.20
2023-04-10T16:23:49.304Z,17.30
2023-04-10T16:26:18.481Z,17.20
2023-04-10T16:28:46.473Z,17.20
2023-04-10T16:31:14.534Z,17.00
2023-04-10T16:33:43.100Z,16.70
2023-04-10T16:36:11.516Z,16.20
2023-04-10T16:38:40.982Z,15.80
2023-04-10T16:41:12.486Z,15.50
2023-04-10T16:43:40.754Z,15.40
2023-04-10T16:46:08.830Z,15.10
2023-04-10T16:48:36.994Z,14.80
2023-04-10T16:51:06.451Z,14.70
2023-04-10T16:53:35.916Z,14.50
2023-04-10T17:09:49.196Z,14.30
2023-04-10T17:12:36.799Z,14.50
2023-04-10T17:15:05.931Z,14.50
2023-04-10T17:17:34.743Z,14.70
2023-04-10T17:20:02.911Z,14.80
2023-04-10T17:22:30.978Z,14.80
2023-04-10T17:25:01.746Z,14.80
2023-04-10T17:27:29.847Z,14.80
2023-04-10T17:29:57.910Z,14.90
2023-04-10T17:32:26.286Z,14.90
2023-04-10T17:34:54.436Z,14.90
2023-04-10T17:37:22.917Z,15.00
2023-04-10T17:39:54.183Z,15.00
2023-04-10T17:42:25.721Z,15.10
2023-04-10T17:44:53.865Z,15.10
2023-04-10T17:47:21.976Z,15.10
2023-04-10T17:49:50.784Z,15.10
2023-04-10T17:52:27.336Z,15.10
2023-04-10T17:54:56.267Z,15.10
2023-04-10T17:57:27.501Z,15.00
2023-04-10T17:59:56.245Z,15.10
2023-04-10T18:02:27.788Z,15.10
2023-04-10T18:05:03.759Z,14.90
2023-04-10T18:07:33.178Z,14.80
2023-04-10T18:10:01.356Z,14.80
2023-04-10T18:12:30.790Z,14.90
2023-04-10T18:14:58.874Z,14.90
2023-04-10T18:17:27.017Z,14.90
2023-04-10T18:19:56.556Z,15.00
2023-04-10T18:22:24.676Z,14.90
2023-04-10T18:24:53.238Z,14.90
2023-04-10T18:27:21.294Z,14.90
2023-04-10T18:29:50.788Z,15.00
2023-04-10T18:32:18.813Z,15.00
2023-04-10T18:34:46.915Z,14.90
2023-04-10T18:37:14.986Z,14.90
2023-04-10T18:39:43.048Z,14.90
2023-04-10T18:42:11.576Z,14.90
2023-04-10T18:44:39.697Z,14.80
2023-04-10T18:47:10.907Z,14.80
2023-04-10T18:49:39.294Z,14.80
2023-04-10T18:52:07.485Z,14.80
2023-04-10T18:54:36.096Z,14.80
2023-04-10T18:57:04.331Z,14.80
2023-04-10T18:59:32.641Z,14.80
2023-04-10T19:02:00.940Z,14.80
2023-04-10T19:04:30.712Z,14.70
2023-04-10T19:06:58.822Z,14.70
2023-04-10T19:09:26.920Z,14.70
2023-04-10T19:11:55.003Z,14.70
2023-04-10T19:14:23.041Z,14.80
2023-04-10T19:16:51.122Z,14.80
2023-04-10T19:19:19.097Z,14.80
2023-04-10T19:21:48.422Z,14.80
2023-04-10T19:24:16.550Z,14.80
2023-04-10T19:26:44.801Z,14.70
2023-04-10T19:29:13.524Z,14.70
2023-04-10T19:31:41.648Z,14.60
2023-04-10T19:34:11.366Z,14.40
2023-04-10T19:36:39.506Z,14.10
2023-04-10T19:39:09.098Z,13.90
2023-04-10T19:41:41.800Z,13.60
2023-04-10T19:44:17.828Z,13.40
2023-04-10T19:46:50.065Z,13.20
2023-04-10T19:49:20.366Z,13.20
2023-04-10T19:51:56.834Z,13.10
2023-04-10T19:54:29.787Z,13.10
2023-04-10T19:56:58.745Z,13.20
2023-04-10T19:59:29.385Z,13.40
2023-04-10T20:02:05.508Z,13.70
2023-04-10T20:04:34.064Z,13.70
2023-04-10T20:07:02.317Z,13.80
2023-04-10T20:09:31.727Z,13.90
2023-04-10T20:11:59.844Z,13.70
2023-04-10T20:14:29.592Z,13.60
2023-04-10T20:17:00.359Z,13.50
2023-04-10T20:19:28.578Z,13.40
2023-04-10T20:21:56.987Z,13.40
2023-04-10T20:24:25.074Z,13.30
2023-04-10T20:26:54.524Z,13.20
2023-04-10T20:29:27.591Z,13.20
2023-04-10T20:32:01.164Z,13.20
2023-04-10T20:34:29.579Z,13.20
2023-04-10T20:37:03.561Z,13.40
2023-04-10T20:39:34.185Z,13.30
2023-04-10T20:42:05.694Z,13.30
2023-04-10T20:44:40.754Z,13.30
2023-04-10T20:47:09.316Z,13.40
2023-04-10T20:49:38.502Z,13.40
2023-04-10T20:52:07.450Z,13.40
2023-04-10T20:54:35.628Z,13.00
2023-04-10T20:57:06.019Z,12.60
2023-04-10T20:59:35.983Z,12.30
2023-04-10T21:02:04.369Z,12.00
2023-04-10T21:04:32.896Z,11.80
2023-04-10T21:07:01.062Z,11.70
2023-04-10T21:09:29.150Z,11.50
2023-04-10T21:11:57.689Z,11.40
2023-04-10T21:14:27.107Z,11.30
2023-04-10T21:16:55.276Z,11.30
2023-04-10T21:19:23.409Z,11.20
2023-04-10T21:21:51.417Z,11.20
2023-04-10T21:24:19.475Z,11.10
2023-04-10T21:26:47.514Z,11.20
2023-04-10T21:29:15.596Z,11.10
2023-04-10T21:31:45.510Z,11.10
2023-04-10T21:34:13.964Z,11.10
2023-04-10T21:36:41.975Z,11.00
2023-04-10T21:39:10.047Z,10.90
2023-04-10T21:41:38.810Z,10.80
2023-04-10T21:44:07.606Z,10.70
2023-04-10T21:46:35.725Z,10.60
2023-04-10T21:49:05.536Z,10.60
2023-04-10T21:51:33.962Z,10.50
2023-04-10T21:54:02.012Z,10.50
2023-04-10T21:56:30.204Z,10.40
2023-04-10T21:58:58.298Z,10.30
2023-04-10T22:01:27.042Z,10.30
2023-04-10T22:03:55.252Z,10.30
2023-04-10T22:06:24.704Z,10.20
2023-04-10T22:08:52.940Z,10.20
2023-04-10T22:11:21.177Z,10.20
2023-04-10T22:13:49.234Z,10.10
2023-04-10T22:16:17.362Z,10.10
2023-04-10T22:18:45.667Z,10.10
2023-04-10T22:21:14.552Z,10.10
2023-04-10T22:23:43.941Z,10.10
2023-04-10T22:26:11.959Z,10.10
2023-04-10T22:28:40.227Z,10.00
2023-04-10T22:31:15.425Z,10.00
2023-04-10T22:33:43.525Z,9.90
2023-04-10T22:36:12.325Z,9.90
2023-04-10T22:38:40.338Z,9.80
2023-04-10T22:41:10.889Z,9.80
2023-04-10T22:43:38.958Z,9.80
2023-04-10T22:46:07.446Z,9.70
2023-04-10T22:48:35.655Z,9.60
2023-04-10T22:51:03.784Z,9.60
2023-04-10T22:53:31.867Z,9.50
2023-04-10T22:55:59.899Z,9.50
2023-04-10T22:58:29.285Z,9.40
2023-04-10T23:00:57.283Z,9.40
2023-04-10T23:03:25.530Z,9.40
2023-04-10T23:05:53.632Z,9.30
2023-04-10T23:08:21.671Z,9.30
2023-04-10T23:10:49.718Z,9.30
2023-04-10T23:13:17.766Z,9.30
2023-04-10T23:15:51.923Z,9.30
2023-04-10T23:18:20.618Z,9.20
2023-04-10T23:20:50.334Z,9.20
2023-04-10T23:23:18.543Z,9.20
2023-04-10T23:25:47.482Z,9.20
2023-04-10T23:28:15.681Z,9.20
2023-04-10T23:30:43.683Z,9.20
2023-04-10T23:33:13.046Z,9.20
2023-04-10T23:35:41.074Z,9.20
2023-04-10T23:38:09.484Z,9.20
2023-04-10T23:40:37.533Z,9.10
2023-04-10T23:43:06.133Z,9.10
2023-04-10T23:45:34.155Z,9.10
2023-04-10T23:48:02.273Z,9.20
2023-04-10T23:50:31.793Z,9.20
2023-04-10T23:53:00.617Z,9.20
2023-04-10T23:55:28.881Z,9.30
2023-04-10T23:57:56.876Z,9.30
